Time;durP1;ratioP1;P1;durP2;ratioP2;P2;SDS_P1;SDS_P2;PMS_P1;PMS_P2;Temp;Humidity;BMP_temperature;BMP_pressure;BME280_temperature;BME280_humidity;BME280_pressure;Samples;Min_cycle;Max_cycle;Signal;HPM_P1;HPM_P2
2022/05/18 00:01:20;;;;;;;3.85;2.45;;;;;;;15.60;82.50;100132.13;4317299;33;35057;-76
2022/05/18 00:04:06;;;;;;;6.18;2.58;;;;;;;15.49;81.84;100139.16;4317723;33;34915;-77
2022/05/18 00:06:53;;;;;;;4.62;2.75;;;;;;;15.91;80.86;100136.53;4318499;33;35291;-77
2022/05/18 00:09:39;;;;;;;5.65;2.80;;;;;;;16.63;78.06;100132.56;4307289;33;34661;-77
2022/05/18 00:12:26;;;;;;;6.00;2.55;;;;;;;16.79;78.16;100151.31;4318592;33;34929;-76
2022/05/18 00:15:15;;;;;;;6.30;2.70;;;;;;;16.73;76.07;100142.37;4308642;33;34712;-77
2022/05/18 00:18:01;;;;;;;5.57;2.65;;;;;;;16.76;77.08;100151.97;4307741;33;34190;-77
2022/05/18 00:20:48;;;;;;;5.62;2.50;;;;;;;16.78;77.82;100146.94;4319084;33;35579;-77
2022/05/18 00:23:34;;;;;;;4.87;2.60;;;;;;;17.00;77.09;100157.62;4319059;33;34952;-77
2022/05/18 00:26:21;;;;;;;7.40;2.55;;;;;;;17.27;75.84;100142.31;4318347;33;34645;-77
2022/05/18 00:29:07;;;;;;;5.90;2.80;;;;;;;16.72;78.31;100154.59;4318685;33;35024;-77
2022/05/18 00:31:54;;;;;;;6.65;2.42;;;;;;;16.86;75.35;100146.03;4319552;33;34676;-77
2022/05/18 00:34:40;;;;;;;5.80;2.60;;;;;;;17.02;75.55;100154.53;4319517;33;35049;-77
2022/05/18 00:37:26;;;;;;;5.37;2.55;;;;;;;17.44;73.57;100155.16;4318422;33;35422;-77
2022/05/18 00:40:16;;;;;;;4.45;2.53;;;;;;;17.68;72.65;100150.81;4319618;33;34121;-77
2022/05/18 00:43:02;;;;;;;5.50;2.40;;;;;;;17.58;73.45;100156.78;4308019;33;35345;-78
2022/05/18 00:45:49;;;;;;;5.87;3.50;;;;;;;17.73;72.14;100156.09;4307462;33;35042;-76
2022/05/18 00:48:37;;;;;;;4.40;1.90;;;;;;;17.23;72.95;100163.56;4318090;33;34686;-77
2022/05/18 00:51:33;;;;;;;4.68;2.28;;;;;;;17.26;69.79;100156.53;4318370;33;34116;-77
2022/05/18 00:54:23;;;;;;;7.32;2.37;;;;;;;16.85;70.00;100166.56;4318580;33;35666;-77
2022/05/18 00:57:19;;;;;;;4.50;2.15;;;;;;;17.15;65.98;100164.47;4307824;33;35048;-77
2022/05/18 01:00:10;;;;;;;4.78;2.03;;;;;;;17.12;64.97;100156.03;4317754;33;34798;-77
2022/05/18 01:03:00;;;;;;;5.65;1.95;;;;;;;16.42;67.00;100167.69;4307149;33;35283;-77
2022/05/18 01:05:49;;;;;;;6.47;1.90;;;;;;;16.08;67.38;100166.81;4307359;33;34738;-76
2022/05/18 01:08:46;;;;;;;4.47;1.87;;;;;;;16.74;64.41;100176.41;4307509;33;36002;-77
2022/05/18 01:11:34;;;;;;;4.07;2.22;;;;;;;16.07;65.29;100181.78;4318682;33;35576;-77
2022/05/18 01:14:30;;;;;;;5.20;1.70;;;;;;;16.11;65.52;100179.97;4316509;33;34990;-77
2022/05/18 01:17:20;;;;;;;2.87;1.70;;;;;;;15.51;67.60;100181.03;4306974;33;34640;-76
2022/05/18 01:20:09;;;;;;;4.93;2.00;;;;;;;15.61;66.80;100190.94;4307396;33;34817;-77
2022/05/18 01:23:24;;;;;;;4.95;1.92;;;;;;;15.39;68.83;100192.78;4307219;33;35519;-77
2022/05/18 01:26:29;;;;;;;3.92;1.98;;;;;;;15.58;67.28;100197.13;4317198;33;34095;-77
2022/05/18 01:29:18;;;;;;;5.32;1.95;;;;;;;15.80;66.86;100196.09;4318438;33;34914;-77
2022/05/18 01:32:05;;;;;;;6.45;1.85;;;;;;;15.29;66.88;100201.44;4307242;33;35031;-77
2022/05/18 01:34:51;;;;;;;3.75;1.77;;;;;;;15.74;66.06;100198.22;4318503;33;34668;-77
2022/05/18 01:37:38;;;;;;;4.62;1.87;;;;;;;15.93;64.58;100197.78;4317457;33;34217;-76
2022/05/18 01:40:36;;;;;;;3.35;1.80;;;;;;;15.71;65.99;100198.88;4318764;33;35653;-77
2022/05/18 01:43:30;;;;;;;4.65;1.87;;;;;;;16.22;64.47;100209.97;4317088;33;35182;-77
2022/05/18 01:46:19;;;;;;;4.90;1.75;;;;;;;16.67;62.62;100206.56;4317579;33;35537;-77
2022/05/18 01:49:05;;;;;;;4.28;1.70;;;;;;;16.94;61.12;100197.75;4307275;33;34149;-77
2022/05/18 01:51:53;;;;;;;4.70;1.77;;;;;;;16.72;61.36;100196.09;4317685;33;34740;-77
2022/05/18 01:54:44;;;;;;;4.05;1.80;;;;;;;17.16;60.16;100204.03;4318033;33;34992;-77
2022/05/18 01:57:35;;;;;;;4.03;1.98;;;;;;;17.04;60.90;100219.44;4306782;33;34853;-77
2022/05/18 02:00:21;;;;;;;5.60;1.70;;;;;;;17.09;61.50;100210.94;4317683;33;35251;-77
2022/05/18 02:03:08;;;;;;;5.50;1.90;;;;;;;17.14;61.44;100222.97;4321184;33;34061;-77
2022/05/18 02:05:54;;;;;;;3.35;1.80;;;;;;;17.26;61.51;100225.75;4318087;33;35053;-77
2022/05/18 02:08:42;;;;;;;5.55;1.80;;;;;;;17.35;61.69;100226.47;4318410;33;35464;-77
2022/05/18 02:11:31;;;;;;;5.10;1.90;;;;;;;17.29;62.54;100239.72;4318697;33;34193;-77
2022/05/18 02:14:19;;;;;;;4.93;2.10;;;;;;;17.07;63.70;100235.38;4319198;33;34755;-77
2022/05/18 02:17:05;;;;;;;5.03;1.95;;;;;;;17.02;63.68;100245.88;4306879;33;35023;-76
2022/05/18 02:19:52;;;;;;;4.37;2.15;;;;;;;17.03;64.03;100251.06;4318669;33;35504;-77
2022/05/18 02:22:38;;;;;;;4.78;2.00;;;;;;;16.97;64.09;100252.41;4316790;33;35170;-76
2022/05/18 02:25:26;;;;;;;4.80;1.95;;;;;;;16.46;66.64;100254.41;4317478;33;35512;-76
2022/05/18 02:28:12;;;;;;;4.85;2.20;;;;;;;16.01;67.51;100256.94;4319889;33;35084;-76
2022/05/18 02:30:58;;;;;;;4.68;2.33;;;;;;;15.52;69.44;100266.34;4318849;33;34601;-76
2022/05/18 02:33:45;;;;;;;5.25;2.30;;;;;;;14.12;75.62;100266.59;4317323;33;34224;-76
2022/05/18 02:36:31;;;;;;;5.55;2.33;;;;;;;15.26;71.59;100269.16;4318608;33;35643;-77
2022/05/18 02:39:20;;;;;;;8.05;2.70;;;;;;;15.76;69.17;100269.72;4317419;33;35845;-77
2022/05/18 02:42:06;;;;;;;3.55;2.17;;;;;;;15.30;70.66;100280.34;4318294;33;34749;-77
2022/05/18 02:44:53;;;;;;;6.22;2.70;;;;;;;15.73;69.93;100285.81;4318166;33;34127;-76
2022/05/18 02:47:39;;;;;;;4.97;2.78;;;;;;;15.51;71.30;100283.22;4307363;33;34617;-77
2022/05/18 02:50:26;;;;;;;5.85;2.72;;;;;;;15.76;70.66;100287.09;4322000;33;35706;-76
2022/05/18 02:53:12;;;;;;;6.28;2.90;;;;;;;15.46;73.01;100289.75;4306858;33;34937;-76
2022/05/18 02:56:07;;;;;;;6.40;2.97;;;;;;;14.85;76.40;100300.00;4318130;33;35367;-76
2022/05/18 02:58:56;;;;;;;5.22;2.70;;;;;;;14.43;78.32;100296.00;4318483;33;34717;-76
2022/05/18 03:01:42;;;;;;;4.75;2.60;;;;;;;14.76;76.84;100308.28;4317814;33;35142;-77
2022/05/18 03:04:30;;;;;;;5.25;3.03;;;;;;;14.96;76.17;100308.78;4318280;33;34617;-76
2022/05/18 03:07:16;;;;;;;7.62;2.75;;;;;;;15.30;74.46;100303.25;4307073;33;35035;-77
2022/05/18 03:10:04;;;;;;;4.78;2.72;;;;;;;15.33;74.23;100310.06;4317803;33;34706;-77
2022/05/18 03:12:50;;;;;;;5.32;3.08;;;;;;;15.45;73.50;100304.72;4317443;33;35020;-76
2022/05/18 03:15:36;;;;;;;9.93;3.17;;;;;;;15.19;75.05;100318.50;4316942;33;36129;-77
2022/05/18 03:18:24;;;;;;;7.72;2.85;;;;;;;15.26;75.09;100320.81;4317966;33;34211;-76
2022/05/18 03:24:15;;;;;;;5.68;2.67;;;;;;;15.34;73.77;100335.72;4317994;33;36005;-76
2022/05/18 03:27:02;;;;;;;4.30;2.60;;;;;;;15.47;72.70;100330.03;4318145;33;35475;-76
2022/05/18 03:29:48;;;;;;;5.28;2.42;;;;;;;15.50;72.00;100350.66;4317966;33;34121;-77
2022/05/18 03:32:34;;;;;;;5.93;2.60;;;;;;;15.37;72.96;100348.87;4320754;33;34827;-76
2022/05/18 03:35:21;;;;;;;5.57;2.92;;;;;;;15.19;73.35;100359.91;4318060;33;35886;-76
2022/05/18 03:38:08;;;;;;;7.22;2.95;;;;;;;15.37;72.93;100369.03;4320688;33;34717;-76
2022/05/18 03:41:01;;;;;;;7.32;3.08;;;;;;;15.50;72.51;100368.03;4321051;33;34070;-76
2022/05/18 03:43:47;;;;;;;4.95;2.30;;;;;;;15.26;73.30;100382.34;4322866;33;35703;-76
2022/05/18 03:46:34;;;;;;;5.07;2.90;;;;;;;14.78;74.85;100377.72;4323123;33;35107;-76
2022/05/18 03:49:20;;;;;;;6.07;3.10;;;;;;;14.45;76.49;100387.50;4322479;33;35785;-76
2022/05/18 03:52:06;;;;;;;6.15;3.00;;;;;;;14.75;74.63;100381.12;4321999;33;34346;-76
2022/05/18 03:54:55;;;;;;;7.28;2.87;;;;;;;14.99;73.57;100390.91;4322633;33;35641;-76
2022/05/18 03:57:41;;;;;;;6.85;2.78;;;;;;;13.32;80.80;100400.56;4322612;33;35030;-75
2022/05/18 04:00:28;;;;;;;7.70;2.72;;;;;;;13.12;82.14;100401.81;4322079;33;34718;-76
2022/05/18 04:03:16;;;;;;;3.55;2.37;;;;;;;13.84;79.77;100407.28;4322063;33;34136;-76
2022/05/18 04:06:02;;;;;;;6.12;2.83;;;;;;;14.02;78.35;100410.16;4316849;33;117898;-76
2022/05/18 04:08:49;;;;;;;5.57;2.60;;;;;;;14.51;76.75;100413.78;4321834;33;35923;-76
2022/05/18 04:11:36;;;;;;;5.10;2.83;;;;;;;14.02;79.07;100413.72;4321033;33;34616;-76
2022/05/18 04:14:22;;;;;;;8.77;3.33;;;;;;;14.11;78.70;100413.75;4320721;33;35112;-76
2022/05/18 04:17:08;;;;;;;6.93;2.87;;;;;;;14.12;79.34;100424.47;4320999;33;35552;-76
2022/05/18 04:19:55;;;;;;;7.50;2.75;;;;;;;14.73;77.04;100423.97;4320239;33;35051;-76
2022/05/18 04:22:42;;;;;;;6.82;3.05;;;;;;;14.83;76.33;100431.97;4320973;33;34615;-76
2022/05/18 04:25:29;;;;;;;6.60;3.35;;;;;;;14.85;76.24;100436.00;4310323;33;34198;-76
2022/05/18 04:28:15;;;;;;;4.62;2.60;;;;;;;14.62;77.76;100437.22;4321480;33;34714;-76
2022/05/18 04:31:02;;;;;;;6.93;3.65;;;;;;;14.97;76.21;100449.19;4320315;33;34473;-76
2022/05/18 04:33:48;;;;;;;5.00;3.22;;;;;;;14.59;77.54;100455.22;4322043;33;35545;-76
2022/05/18 04:36:34;;;;;;;7.72;3.55;;;;;;;14.38;78.67;100465.16;4322261;33;34209;-76
2022/05/18 04:39:20;;;;;;;7.47;3.58;;;;;;;13.67;82.01;100462.25;4320194;33;34591;-76
2022/05/18 04:42:08;;;;;;;7.47;3.90;;;;;;;13.28;84.18;100461.72;4319672;33;35626;-76
2022/05/18 04:44:54;;;;;;;8.50;4.78;;;;;;;13.61;85.16;100474.50;4320779;33;35662;-76
2022/05/18 04:47:40;;;;;;;8.13;3.97;;;;;;;13.85;83.83;100476.97;4322821;33;35383;-76
2022/05/18 04:50:26;;;;;;;7.85;4.07;;;;;;;13.58;85.60;100480.63;4316862;33;34693;-77
2022/05/18 04:53:15;;;;;;;5.80;3.80;;;;;;;13.90;83.16;100485.91;4317531;33;35507;-77
2022/05/18 04:56:03;;;;;;;7.18;4.37;;;;;;;14.50;81.14;100483.88;4316486;33;34620;-76
2022/05/18 04:58:49;;;;;;;7.47;3.90;;;;;;;13.92;83.63;100486.44;4306986;33;35120;-76
2022/05/18 05:01:35;;;;;;;6.32;4.10;;;;;;;14.24;81.72;100494.75;4317355;33;35603;-76
2022/05/18 05:04:22;;;;;;;5.90;3.17;;;;;;;15.14;78.39;100500.03;4317308;33;34880;-76
2022/05/18 05:07:09;;;;;;;4.32;2.83;;;;;;;15.04;73.90;100498.41;4317618;33;35556;-76
2022/05/18 05:09:55;;;;;;;4.62;2.78;;;;;;;15.37;71.08;100504.34;4317776;33;35132;-77
2022/05/18 05:12:42;;;;;;;5.68;2.37;;;;;;;15.60;71.56;100518.03;4316602;33;34635;-77
2022/05/18 05:15:28;;;;;;;3.80;2.22;;;;;;;15.87;70.14;100516.91;4317355;33;34996;-76
2022/05/18 05:18:14;;;;;;;5.85;2.00;;;;;;;15.36;68.17;100515.69;4316643;33;34992;-77
2022/05/18 05:21:00;;;;;;;5.40;1.70;;;;;;;15.71;64.94;100522.94;4315756;33;34072;-77
2022/05/18 05:23:47;;;;;;;7.35;1.87;;;;;;;15.04;61.47;100526.81;4316595;33;35577;-76
2022/05/18 05:26:33;;;;;;;3.67;1.52;;;;;;;15.35;61.86;100533.41;4317456;33;35056;-76
2022/05/18 05:29:20;;;;;;;4.87;1.50;;;;;;;15.39;63.31;100537.94;4316875;33;34644;-77
2022/05/18 05:32:08;;;;;;;5.62;1.50;;;;;;;15.45;60.24;100547.72;4316836;33;34363;-77
2022/05/18 05:34:54;;;;;;;3.62;1.73;;;;;;;15.40;57.42;100550.62;4305258;33;34688;-77
2022/05/18 05:37:40;;;;;;;6.47;1.70;;;;;;;15.46;57.32;100554.06;4314442;33;36036;-77
2022/05/18 05:40:27;;;;;;;5.62;1.83;;;;;;;15.26;57.13;100572.84;4316225;33;34835;-76
2022/05/18 05:43:13;;;;;;;4.97;1.83;;;;;;;14.92;58.04;100572.72;4315265;33;34972;-76
2022/05/18 05:46:04;;;;;;;7.90;1.65;;;;;;;14.84;57.73;100577.03;4315551;33;33878;-78
2022/05/18 05:48:50;;;;;;;5.20;2.20;;;;;;;14.10;60.42;100591.25;4315254;33;35765;-77
2022/05/18 05:51:36;;;;;;;4.97;1.83;;;;;;;14.73;61.49;100593.03;4315821;33;35559;-77
2022/05/18 05:54:23;;;;;;;3.42;1.55;;;;;;;14.59;62.14;100595.06;4315920;33;34097;-76
2022/05/18 05:57:09;;;;;;;5.28;1.70;;;;;;;15.17;60.40;100605.12;4316498;33;34661;-77
2022/05/18 05:59:55;;;;;;;6.25;2.67;;;;;;;15.29;58.35;100605.34;4315444;33;36018;-78
2022/05/18 06:02:41;;;;;;;3.95;1.70;;;;;;;15.52;56.31;100610.78;4316233;33;34751;-77
2022/05/18 06:05:28;;;;;;;4.10;1.50;;;;;;;15.94;55.06;100620.31;4316211;33;34763;-76
2022/05/18 06:08:15;;;;;;;4.25;1.37;;;;;;;15.65;54.90;100626.41;4314857;33;35411;-76
2022/05/18 06:11:02;;;;;;;4.80;1.37;;;;;;;15.61;53.84;100633.69;4315626;33;35499;-77
2022/05/18 06:13:49;;;;;;;6.78;1.50;;;;;;;16.00;55.21;100634.00;4305629;33;34588;-77
2022/05/18 06:16:35;;;;;;;4.18;1.48;;;;;;;15.99;53.64;100629.59;4315155;33;34198;-77
2022/05/18 06:19:21;;;;;;;6.47;1.55;;;;;;;15.98;55.78;100652.84;4316424;33;34746;-77
2022/05/18 06:22:07;;;;;;;4.03;1.60;;;;;;;16.10;53.75;100648.28;4317821;33;35950;-77
2022/05/18 06:24:53;;;;;;;5.32;1.40;;;;;;;16.12;53.26;100648.78;4316053;33;35433;-78
2022/05/18 06:27:41;;;;;;;3.87;1.40;;;;;;;16.14;53.29;100652.06;4316638;33;34274;-78
2022/05/18 06:30:27;;;;;;;4.57;1.45;;;;;;;16.46;50.44;100655.47;4314580;33;35536;-78
2022/05/18 06:33:13;;;;;;;4.47;1.58;;;;;;;16.56;50.28;100657.94;4315278;33;36562;-77
2022/05/18 06:36:00;;;;;;;4.03;1.60;;;;;;;16.61;49.32;100665.22;4314442;33;34825;-77
2022/05/18 06:38:46;;;;;;;5.95;1.50;;;;;;;16.79;48.85;100671.59;4312226;33;34403;-75
2022/05/18 06:41:34;;;;;;;5.62;1.70;;;;;;;16.62;49.75;100676.00;4309344;33;34606;-74
2022/05/18 06:44:21;;;;;;;4.43;2.12;;;;;;;16.42;50.11;100684.91;4302722;33;34941;-75
2022/05/18 06:47:07;;;;;;;8.30;1.42;;;;;;;16.45;49.23;100684.28;4312615;33;35042;-74
2022/05/18 06:49:54;;;;;;;5.18;1.40;;;;;;;16.39;49.67;100693.88;4312398;33;33792;-74
2022/05/18 06:52:40;;;;;;;6.18;1.60;;;;;;;16.45;49.77;100698.13;4311859;33;35732;-75
2022/05/18 06:55:27;;;;;;;5.22;1.60;;;;;;;16.68;50.57;100700.69;4305527;33;35005;-75
2022/05/18 06:58:34;;;;;;;4.50;1.60;;;;;;;16.67;49.52;100707.38;4313627;33;35197;-75
2022/05/18 07:01:21;;;;;;;2.90;1.30;;;;;;;16.73;48.17;100706.06;4313495;33;34251;-75
2022/05/18 07:04:09;;;;;;;3.33;1.30;;;;;;;17.10;46.78;100712.91;4314072;33;34719;-75
2022/05/18 07:06:57;;;;;;;4.07;1.35;;;;;;;17.01;47.56;100721.22;4311442;33;35076;-75
2022/05/18 07:09:43;;;;;;;3.95;1.50;;;;;;;17.47;47.28;100727.94;4312300;33;35456;-75
2022/05/18 07:12:30;;;;;;;4.35;1.50;;;;;;;17.38;46.84;100726.38;4312014;33;35077;-74
2022/05/18 07:15:16;;;;;;;6.72;1.50;;;;;;;17.40;46.84;100738.75;4312228;33;34759;-74
2022/05/18 07:18:02;;;;;;;3.50;1.55;;;;;;;17.06;46.96;100740.44;4312963;33;36428;-75
2022/05/18 07:20:49;;;;;;;3.75;1.70;;;;;;;17.17;46.94;100742.88;4312377;33;34166;-74
2022/05/18 07:23:36;;;;;;;5.60;1.77;;;;;;;17.50;46.50;100746.72;4313608;33;35080;-75
2022/05/18 07:26:24;;;;;;;5.75;1.80;;;;;;;17.71;45.97;100748.75;4312896;33;36082;-75
2022/05/18 07:29:10;;;;;;;5.78;1.92;;;;;;;17.59;45.33;100754.16;4302685;33;37195;-75
2022/05/18 07:32:09;;;;;;;4.57;1.40;;;;;;;17.70;44.98;100760.97;4307886;33;34196;-75
2022/05/18 07:34:55;;;;;;;3.83;1.52;;;;;;;17.83;43.81;100754.44;4311859;33;35371;-75
2022/05/18 07:37:42;;;;;;;3.78;1.60;;;;;;;17.39;45.65;100753.75;4314575;33;34723;-75
2022/05/18 07:40:34;;;;;;;8.65;1.62;;;;;;;17.46;45.88;100762.34;4314079;33;35998;-75
2022/05/18 07:43:20;;;;;;;6.03;1.37;;;;;;;17.50;46.08;100766.09;4313226;33;35890;-75
2022/05/18 07:46:07;;;;;;;4.45;1.60;;;;;;;17.90;45.15;100768.59;4311735;33;35029;-76
2022/05/18 07:48:53;;;;;;;4.78;1.15;;;;;;;18.17;44.47;100761.78;4312439;33;34633;-75
2022/05/18 07:51:39;;;;;;;6.82;1.55;;;;;;;17.98;43.02;100764.16;4313506;33;34999;-74
2022/05/18 07:54:26;;;;;;;2.10;1.17;;;;;;;18.32;44.10;100774.25;4300105;33;35499;-75
2022/05/18 07:57:12;;;;;;;6.03;1.70;;;;;;;18.78;42.26;100782.78;4312946;33;34210;-74
2022/05/18 07:59:59;;;;;;;3.03;1.37;;;;;;;18.63;40.72;100781.41;4311742;33;34224;-75
2022/05/18 08:02:45;;;;;;;5.93;1.17;;;;;;;17.92;41.69;100780.16;4313610;33;35923;-75
2022/05/18 08:05:33;;;;;;;3.28;1.35;;;;;;;18.48;42.24;100782.00;4311325;33;34649;-75
2022/05/18 08:08:21;;;;;;;3.92;1.27;;;;;;;18.63;40.10;100782.19;4313446;33;35392;-75
2022/05/18 08:17:18;;;;;;;6.43;1.50;;;;;;;18.93;40.89;100796.06;4309897;33;35705;-76
2022/05/18 08:20:06;;;;;;;6.70;1.42;;;;;;;18.62;40.36;100797.25;4300381;33;35304;-76
2022/05/18 08:22:53;;;;;;;8.43;1.52;;;;;;;19.08;41.10;100814.88;4308789;33;37173;-75
2022/05/18 08:25:39;;;;;;;5.00;1.75;;;;;;;18.66;40.66;100817.59;4311237;33;34004;-76
2022/05/18 08:28:26;;;;;;;4.28;1.62;;;;;;;18.76;41.75;100818.41;4314072;33;35678;-76
2022/05/18 08:31:15;;;;;;;5.95;1.77;;;;;;;18.36;42.90;100821.56;4313914;33;35366;-75
2022/05/18 08:34:01;;;;;;;7.78;1.77;;;;;;;18.29;43.28;100821.28;4312143;33;33497;-76
2022/05/18 08:36:49;;;;;;;3.55;1.60;;;;;;;17.48;44.35;100821.03;4311334;33;36802;-75
2022/05/18 08:39:35;;;;;;;4.72;1.55;;;;;;;18.36;43.48;100832.66;4314520;33;34651;-75
2022/05/18 08:42:22;;;;;;;5.28;1.75;;;;;;;18.36;42.96;100833.47;4311030;33;33819;-76
2022/05/18 08:45:09;;;;;;;3.05;1.60;;;;;;;18.75;40.85;100823.13;4312455;33;34298;-75
2022/05/18 08:47:58;;;;;;;2.80;1.40;;;;;;;19.02;41.79;100832.91;4315102;33;36115;-76
2022/05/18 08:50:45;;;;;;;3.45;1.40;;;;;;;18.75;41.19;100831.47;4314238;33;33131;-75
2022/05/18 08:53:48;;;;;;;2.20;1.37;;;;;;;19.12;42.09;100836.41;4311887;33;34715;-76
2022/05/18 08:56:44;;;;;;;3.75;1.33;;;;;;;19.16;39.64;100832.63;4303189;33;35255;-75
2022/05/18 08:59:33;;;;;;;4.87;1.73;;;;;;;18.59;40.87;100831.22;4313579;33;34997;-76
2022/05/18 09:02:27;;;;;;;3.80;1.40;;;;;;;19.12;40.28;100837.22;4313879;33;38057;-75
2022/05/18 09:05:21;;;;;;;7.87;1.40;;;;;;;19.65;38.94;100838.41;4311980;33;36672;-75
2022/05/18 09:08:14;;;;;;;3.90;1.33;;;;;;;19.66;38.47;100840.03;4303546;33;34275;-76
2022/05/18 09:11:07;;;;;;;4.53;1.27;;;;;;;18.65;39.33;100840.97;4312714;33;35944;-76
2022/05/18 09:13:56;;;;;;;3.25;1.35;;;;;;;18.65;39.94;100845.72;4314552;33;37109;-76
2022/05/18 09:16:51;;;;;;;4.40;1.27;;;;;;;19.26;38.23;100843.31;4313242;33;35107;-75
2022/05/18 09:20:06;;;;;;;3.17;1.50;;;;;;;18.52;39.26;100852.31;4314300;33;34388;-75
2022/05/18 09:23:04;;;;;;;3.58;1.33;;;;;;;18.65;38.82;100856.81;4315515;33;33541;-75
2022/05/18 09:26:18;;;;;;;3.10;1.30;;;;;;;17.73;38.79;100849.00;4311928;33;34942;-75
2022/05/18 09:29:08;;;;;;;3.10;1.30;;;;;;;17.70;38.45;100846.87;4314619;33;33980;-75
2022/05/18 09:31:55;;;;;;;3.95;1.10;;;;;;;18.73;37.94;100844.84;4313971;33;35259;-75
2022/05/18 09:34:44;;;;;;;5.57;1.20;;;;;;;18.40;34.64;100844.72;4313784;33;36089;-75
2022/05/18 09:37:35;;;;;;;3.78;1.20;;;;;;;18.88;35.78;100855.38;4314004;33;34605;-75
2022/05/18 09:40:25;;;;;;;7.13;1.53;;;;;;;18.99;35.81;100863.34;4312301;33;33997;-76
2022/05/18 09:43:29;;;;;;;4.43;1.30;;;;;;;18.58;35.76;100859.31;4302822;33;34602;-75
2022/05/18 09:46:19;;;;;;;5.22;1.02;;;;;;;19.20;34.75;100855.78;4313171;33;34906;-76
2022/05/18 09:49:12;;;;;;;4.55;1.05;;;;;;;18.41;33.26;100865.75;4312677;33;34659;-76
2022/05/18 09:52:01;;;;;;;4.57;1.17;;;;;;;19.56;32.79;100868.22;4311606;33;34569;-76
2022/05/18 09:54:51;;;;;;;4.05;1.05;;;;;;;19.51;34.59;100862.88;4313803;33;34359;-75
2022/05/18 09:58:01;;;;;;;5.05;0.93;;;;;;;19.66;31.90;100851.13;4302776;33;35022;-76
2022/05/18 10:00:48;;;;;;;4.97;1.17;;;;;;;18.99;33.40;100866.09;4311418;33;34314;-75
2022/05/18 10:10:16;;;;;;;5.40;1.20;;;;;;;19.67;32.05;100865.88;4312555;33;34046;-76
2022/05/18 10:13:09;;;;;;;5.25;0.90;;;;;;;20.62;31.35;100861.94;4310489;33;34684;-76
2022/05/18 10:16:18;;;;;;;3.42;1.10;;;;;;;19.96;31.42;100853.78;4312145;33;34174;-76
2022/05/18 10:19:09;;;;;;;4.93;1.30;;;;;;;20.61;32.62;100867.87;4310166;33;34627;-76
2022/05/18 10:22:00;;;;;;;3.55;1.15;;;;;;;18.84;34.19;100862.78;4311636;33;36051;-76
2022/05/18 10:25:05;;;;;;;5.28;1.15;;;;;;;19.83;32.21;100863.25;4312330;33;37422;-76
2022/05/18 10:27:54;;;;;;;3.47;1.15;;;;;;;21.08;31.63;100856.19;4300640;33;33913;-76
2022/05/18 10:30:54;;;;;;;4.50;1.20;;;;;;;20.57;29.33;100861.38;4300992;33;34538;-76
2022/05/18 10:33:41;;;;;;;4.60;1.20;;;;;;;20.33;31.01;100856.59;4312029;33;35143;-76
2022/05/18 10:36:29;;;;;;;6.65;1.17;;;;;;;20.69;28.78;100852.19;4313197;33;35444;-76
2022/05/18 10:39:44;;;;;;;4.72;1.20;;;;;;;21.01;31.55;100847.63;4313423;33;34202;-76
2022/05/18 10:42:45;;;;;;;3.00;0.90;;;;;;;21.42;28.84;100845.66;4312175;33;35447;-76
2022/05/18 10:45:34;;;;;;;3.92;1.00;;;;;;;20.85;28.21;100847.53;4310108;33;33888;-76
2022/05/18 10:48:22;;;;;;;3.03;0.93;;;;;;;20.74;27.13;100849.97;4311244;33;34204;-76
2022/05/18 10:51:14;;;;;;;2.60;1.10;;;;;;;20.69;26.25;100839.09;4311270;33;33775;-76
2022/05/18 10:54:13;;;;;;;2.05;0.90;;;;;;;21.71;24.52;100838.88;4312826;33;34748;-76
2022/05/18 10:57:16;;;;;;;4.45;0.90;;;;;;;21.14;24.48;100840.03;4312234;33;35443;-76
2022/05/18 11:00:10;;;;;;;2.42;0.80;;;;;;;20.68;26.80;100843.03;4312334;33;34555;-76
2022/05/18 11:03:08;;;;;;;4.45;0.90;;;;;;;21.46;25.48;100836.22;4311594;33;34117;-76
2022/05/18 11:06:02;;;;;;;3.33;1.08;;;;;;;22.22;25.89;100839.03;4311536;33;34587;-76
2022/05/18 11:08:50;;;;;;;3.50;0.73;;;;;;;22.50;25.37;100846.47;4310772;33;34627;-76
2022/05/18 11:12:06;;;;;;;2.55;0.90;;;;;;;21.62;27.30;100838.22;4311580;33;34606;-75
2022/05/18 11:14:58;;;;;;;2.10;0.70;;;;;;;22.20;24.36;100833.00;4313491;33;34163;-75
2022/05/18 11:17:55;;;;;;;4.10;1.00;;;;;;;20.99;25.91;100822.88;4313449;33;35594;-75
2022/05/18 11:20:51;;;;;;;5.82;1.10;;;;;;;21.04;26.87;100831.00;4312813;33;35984;-76
2022/05/18 11:23:37;;;;;;;4.47;0.98;;;;;;;20.25;26.29;100838.84;4313992;33;34600;-76
2022/05/18 11:26:32;;;;;;;3.35;0.90;;;;;;;20.50;27.61;100836.87;4315529;33;34713;-75
2022/05/18 11:29:45;;;;;;;2.90;1.05;;;;;;;21.56;25.65;100830.13;4314362;33;34281;-76
2022/05/18 11:32:32;;;;;;;3.80;0.80;;;;;;;22.40;24.76;100834.69;4313305;33;34184;-76
2022/05/18 11:35:42;;;;;;;2.92;0.90;;;;;;;22.78;24.95;100835.97;4311741;33;34449;-75
2022/05/18 11:39:11;;;;;;;2.42;0.65;;;;;;;22.59;21.95;100835.91;4303665;33;33713;-76
2022/05/18 11:42:00;;;;;;;5.55;0.80;;;;;;;23.37;21.14;100824.81;4314204;33;34748;-76
2022/05/18 11:45:06;;;;;;;3.12;0.80;;;;;;;23.30;20.36;100829.09;4313586;33;34960;-76
2022/05/18 11:48:07;;;;;;;4.53;0.98;;;;;;;22.88;22.17;100821.44;4313183;33;34376;-74
2022/05/18 11:50:59;;;;;;;2.97;1.10;;;;;;;23.45;22.69;100815.41;4311240;33;34514;-75
2022/05/18 11:54:20;;;;;;;2.47;0.70;;;;;;;23.37;22.50;100822.03;4312717;33;34686;-75
2022/05/18 11:57:39;;;;;;;3.78;0.70;;;;;;;21.79;21.70;100826.72;4311089;33;34955;-76
2022/05/18 12:00:44;;;;;;;2.25;0.65;;;;;;;21.98;23.09;100814.88;4308579;33;34900;-74
2022/05/18 12:03:38;;;;;;;2.40;0.60;;;;;;;22.80;20.30;100827.22;4314048;33;35036;-75
2022/05/18 12:06:43;;;;;;;2.65;0.93;;;;;;;21.93;18.81;100821.53;4313659;33;34560;-76
2022/05/18 12:09:42;;;;;;;2.00;0.70;;;;;;;22.22;20.61;100825.06;4314622;33;34965;-76
2022/05/18 12:12:50;;;;;;;2.83;0.60;;;;;;;23.38;18.28;100826.47;4313729;33;35074;-76
2022/05/18 12:15:51;;;;;;;3.95;0.70;;;;;;;23.77;21.76;100816.06;4314753;33;35158;-75
2022/05/18 12:18:39;;;;;;;3.30;0.73;;;;;;;21.84;20.87;100825.66;4313720;33;34703;-75
2022/05/18 12:21:30;;;;;;;3.10;0.65;;;;;;;22.13;20.18;100821.62;4314518;33;36030;-76
2022/05/18 12:24:17;;;;;;;2.28;0.60;;;;;;;22.83;20.43;100824.50;4312272;33;34481;-76
2022/05/18 12:27:04;;;;;;;3.45;0.77;;;;;;;23.26;18.46;100819.03;4304048;33;33788;-76
2022/05/18 12:29:52;;;;;;;2.55;0.60;;;;;;;22.19;20.92;100823.00;4303654;33;35508;-75
2022/05/18 12:32:39;;;;;;;6.62;0.95;;;;;;;22.66;21.45;100825.72;4304364;33;34618;-74
2022/05/18 12:35:33;;;;;;;3.78;0.98;;;;;;;22.28;22.36;100826.41;4313355;33;35558;-76
2022/05/18 12:38:22;;;;;;;2.12;0.80;;;;;;;22.50;20.88;100838.09;4315798;33;35013;-75
2022/05/18 12:41:11;;;;;;;3.60;0.90;;;;;;;22.71;21.98;100823.81;4314040;33;34651;-75
2022/05/18 12:44:25;;;;;;;3.50;0.77;;;;;;;23.99;22.78;100825.62;4312795;33;34557;-76
2022/05/18 12:47:24;;;;;;;2.10;0.70;;;;;;;24.66;19.12;100823.13;4313265;33;34634;-75
2022/05/18 12:50:17;;;;;;;3.28;0.85;;;;;;;25.05;18.58;100822.84;4304539;33;35027;-75
2022/05/18 12:53:13;;;;;;;4.07;0.90;;;;;;;24.90;19.35;100830.28;4303348;33;35210;-76
2022/05/18 12:56:16;;;;;;;3.00;1.00;;;;;;;25.42;18.40;100824.13;4303261;33;35920;-75
2022/05/18 12:59:09;;;;;;;3.55;0.88;;;;;;;25.54;18.35;100827.47;4315945;33;34758;-75
2022/05/18 13:02:18;;;;;;;1.10;0.62;;;;;;;21.91;19.54;100809.91;4312649;33;35235;-76
2022/05/18 13:05:23;;;;;;;1.98;0.80;;;;;;;24.01;21.14;100814.88;4315022;33;34352;-76
2022/05/18 13:08:15;;;;;;;1.65;0.65;;;;;;;24.15;19.70;100815.09;4314472;33;34671;-76
2022/05/18 13:11:14;;;;;;;3.00;0.65;;;;;;;24.69;18.12;100808.34;4314433;33;34613;-76
2022/05/18 13:14:00;;;;;;;1.90;0.77;;;;;;;24.77;17.06;100811.25;4313742;33;33805;-75
2022/05/18 13:16:47;;;;;;;1.67;1.17;;;;;;;25.04;16.98;100810.00;4315469;33;35300;-75
2022/05/18 13:19:35;;;;;;;1.40;0.50;;;;;;;24.87;16.63;100817.03;4303637;33;34785;-76
2022/05/18 13:22:21;;;;;;;3.78;0.60;;;;;;;24.91;17.20;100808.66;4303757;33;34846;-75
2022/05/18 13:25:10;;;;;;;3.22;0.45;;;;;;;22.83;15.66;100804.94;4311063;33;34066;-76
2022/05/18 13:27:58;;;;;;;2.40;0.52;;;;;;;24.14;18.79;100804.28;4313516;33;34691;-76